sensor_id;sensor_type;location;lat;lon;timestamp;P1;durP1;ratioP1;P2;durP2;ratioP2
64500;SDS011;50874;24.150;-110.320;2023-02-18T00:00:27;40.95;;;5.78;;
64500;SDS011;50874;24.150;-110.320;2023-02-18T00:02:53;44.15;;;5.63;;
64500;SDS011;50874;24.150;-110.320;2023-02-18T00:05:21;28.17;;;5.55;;
64500;SDS011;50874;24.150;-110.320;2023-02-18T00:07:47;35.03;;;4.53;;
64500;SDS011;50874;24.150;-110.320;2023-02-18T00:10:14;51.13;;;6.07;;
64500;SDS011;50874;24.150;-110.320;2023-02-18T00:12:41;45.28;;;5.45;;
64500;SDS011;50874;24.150;-110.320;2023-02-18T00:15:08;58.83;;;6.65;;
64500;SDS011;50874;24.150;-110.320;2023-02-18T00:17:35;29.58;;;4.78;;
64500;SDS011;50874;24.150;-110.320;2023-02-18T00:20:02;41.67;;;5.88;;
64500;SDS011;50874;24.150;-110.320;2023-02-18T00:22:30;36.63;;;5.00;;
64500;SDS011;50874;24.150;-110.320;2023-02-18T00:24:56;65.97;;;8.13;;
64500;SDS011;50874;24.150;-110.320;2023-02-18T00:27:23;52.00;;;6.55;;
64500;SDS011;50874;24.150;-110.320;2023-02-18T00:29:49;46.13;;;5.65;;
64500;SDS011;50874;24.150;-110.320;2023-02-18T00:32:16;46.58;;;5.15;;
64500;SDS011;50874;24.150;-110.320;2023-02-18T00:34:42;36.92;;;4.47;;
64500;SDS011;50874;24.150;-110.320;2023-02-18T00:37:09;24.73;;;3.90;;
64500;SDS011;50874;24.150;-110.320;2023-02-18T00:39:35;25.10;;;3.55;;
64500;SDS011;50874;24.150;-110.320;2023-02-18T00:42:02;27.88;;;4.32;;
64500;SDS011;50874;24.150;-110.320;2023-02-18T00:44:28;39.22;;;5.00;;
64500;SDS011;50874;24.150;-110.320;2023-02-18T00:46:55;36.60;;;5.07;;
64500;SDS011;50874;24.150;-110.320;2023-02-18T00:49:21;23.80;;;4.57;;
64500;SDS011;50874;24.150;-110.320;2023-02-18T00:51:48;39.63;;;8.85;;
64500;SDS011;50874;24.150;-110.320;2023-02-18T00:54:14;26.63;;;3.88;;
64500;SDS011;50874;24.150;-110.320;2023-02-18T00:56:41;41.55;;;6.07;;
64500;SDS011;50874;24.150;-110.320;2023-02-18T00:59:07;72.50;;;8.35;;
64500;SDS011;50874;24.150;-110.320;2023-02-18T01:01:34;57.53;;;6.05;;
64500;SDS011;50874;24.150;-110.320;2023-02-18T01:04:00;65.28;;;8.15;;
64500;SDS011;50874;24.150;-110.320;2023-02-18T01:06:27;60.80;;;6.45;;
64500;SDS011;50874;24.150;-110.320;2023-02-18T01:08:53;71.28;;;9.20;;
64500;SDS011;50874;24.150;-110.320;2023-02-18T01:11:20;30.52;;;4.80;;
64500;SDS011;50874;24.150;-110.320;2023-02-18T01:13:47;28.50;;;5.38;;
64500;SDS011;50874;24.150;-110.320;2023-02-18T01:16:13;79.68;;;8.80;;
64500;SDS011;50874;24.150;-110.320;2023-02-18T01:18:41;39.35;;;4.13;;
64500;SDS011;50874;24.150;-110.320;2023-02-18T01:21:08;40.70;;;5.18;;
64500;SDS011;50874;24.150;-110.320;2023-02-18T01:23:38;44.05;;;4.07;;
64500;SDS011;50874;24.150;-110.320;2023-02-18T01:26:05;26.65;;;4.60;;
64500;SDS011;50874;24.150;-110.320;2023-02-18T01:28:33;45.13;;;5.82;;
64500;SDS011;50874;24.150;-110.320;2023-02-18T01:31:03;104.22;;;12.70;;
64500;SDS011;50874;24.150;-110.320;2023-02-18T01:33:34;46.90;;;5.63;;
64500;SDS011;50874;24.150;-110.320;2023-02-18T01:36:01;38.95;;;5.80;;
64500;SDS011;50874;24.150;-110.320;2023-02-18T01:38:28;44.05;;;6.18;;
64500;SDS011;50874;24.150;-110.320;2023-02-18T01:40:54;31.92;;;4.20;;
64500;SDS011;50874;24.150;-110.320;2023-02-18T01:43:21;15.75;;;3.90;;
64500;SDS011;50874;24.150;-110.320;2023-02-18T01:46:05;43.58;;;5.72;;
64500;SDS011;50874;24.150;-110.320;2023-02-18T01:48:47;35.60;;;5.00;;
64500;SDS011;50874;24.150;-110.320;2023-02-18T01:53:54;38.10;;;4.03;;
64500;SDS011;50874;24.150;-110.320;2023-02-18T01:56:32;20.45;;;3.33;;
64500;SDS011;50874;24.150;-110.320;2023-02-18T01:59:10;45.45;;;6.88;;
64500;SDS011;50874;24.150;-110.320;2023-02-18T02:01:41;56.08;;;7.93;;
64500;SDS011;50874;24.150;-110.320;2023-02-18T02:04:09;63.08;;;6.78;;
64500;SDS011;50874;24.150;-110.320;2023-02-18T02:06:36;54.60;;;6.85;;
64500;SDS011;50874;24.150;-110.320;2023-02-18T02:09:04;51.55;;;6.32;;
64500;SDS011;50874;24.150;-110.320;2023-02-18T02:17:17;33.58;;;6.05;;
64500;SDS011;50874;24.150;-110.320;2023-02-18T02:32:40;39.33;;;6.78;;
64500;SDS011;50874;24.150;-110.320;2023-02-18T02:40:22;73.88;;;8.23;;
64500;SDS011;50874;24.150;-110.320;2023-02-18T02:45:50;40.83;;;4.82;;
64500;SDS011;50874;24.150;-110.320;2023-02-18T02:48:41;42.95;;;6.40;;
64500;SDS011;50874;24.150;-110.320;2023-02-18T02:53:52;55.08;;;7.60;;
64500;SDS011;50874;24.150;-110.320;2023-02-18T02:56:20;54.42;;;6.65;;
64500;SDS011;50874;24.150;-110.320;2023-02-18T02:58:58;49.95;;;6.68;;
64500;SDS011;50874;24.150;-110.320;2023-02-18T03:10:12;71.55;;;7.15;;
64500;SDS011;50874;24.150;-110.320;2023-02-18T03:19:08;49.13;;;6.50;;
64500;SDS011;50874;24.150;-110.320;2023-02-18T03:21:37;65.63;;;8.23;;
64500;SDS011;50874;24.150;-110.320;2023-02-18T03:24:29;77.45;;;9.32;;
64500;SDS011;50874;24.150;-110.320;2023-02-18T03:27:03;63.10;;;9.15;;
64500;SDS011;50874;24.150;-110.320;2023-02-18T03:29:47;69.95;;;9.32;;
64500;SDS011;50874;24.150;-110.320;2023-02-18T03:32:17;67.97;;;8.88;;
64500;SDS011;50874;24.150;-110.320;2023-02-18T03:34:47;74.05;;;10.23;;
64500;SDS011;50874;24.150;-110.320;2023-02-18T03:37:21;73.60;;;8.52;;
64500;SDS011;50874;24.150;-110.320;2023-02-18T03:39:50;56.22;;;8.20;;
64500;SDS011;50874;24.150;-110.320;2023-02-18T03:42:23;59.80;;;8.02;;
64500;SDS011;50874;24.150;-110.320;2023-02-18T03:44:53;74.18;;;7.53;;
64500;SDS011;50874;24.150;-110.320;2023-02-18T03:47:20;52.15;;;7.22;;
64500;SDS011;50874;24.150;-110.320;2023-02-18T03:49:46;71.07;;;9.07;;
64500;SDS011;50874;24.150;-110.320;2023-02-18T03:52:13;50.45;;;9.13;;
64500;SDS011;50874;24.150;-110.320;2023-02-18T03:54:39;112.00;;;12.98;;
64500;SDS011;50874;24.150;-110.320;2023-02-18T03:57:06;52.75;;;9.27;;
64500;SDS011;50874;24.150;-110.320;2023-02-18T03:59:33;60.67;;;8.30;;
64500;SDS011;50874;24.150;-110.320;2023-02-18T04:01:59;99.30;;;14.95;;
64500;SDS011;50874;24.150;-110.320;2023-02-18T04:04:27;54.13;;;6.78;;
64500;SDS011;50874;24.150;-110.320;2023-02-18T04:06:54;48.97;;;6.35;;
64500;SDS011;50874;24.150;-110.320;2023-02-18T04:09:21;47.20;;;5.97;;
64500;SDS011;50874;24.150;-110.320;2023-02-18T04:11:47;37.00;;;4.82;;
64500;SDS011;50874;24.150;-110.320;2023-02-18T04:14:16;49.88;;;5.95;;
64500;SDS011;50874;24.150;-110.320;2023-02-18T04:16:43;28.60;;;5.45;;
64500;SDS011;50874;24.150;-110.320;2023-02-18T04:19:09;27.27;;;4.53;;
64500;SDS011;50874;24.150;-110.320;2023-02-18T04:21:36;40.30;;;4.60;;
64500;SDS011;50874;24.150;-110.320;2023-02-18T04:24:02;19.60;;;4.50;;
64500;SDS011;50874;24.150;-110.320;2023-02-18T04:26:29;27.70;;;4.00;;
64500;SDS011;50874;24.150;-110.320;2023-02-18T04:28:55;26.95;;;3.45;;
64500;SDS011;50874;24.150;-110.320;2023-02-18T04:31:22;36.20;;;5.05;;
64500;SDS011;50874;24.150;-110.320;2023-02-18T04:33:48;20.75;;;4.28;;
64500;SDS011;50874;24.150;-110.320;2023-02-18T04:36:15;25.00;;;3.97;;
64500;SDS011;50874;24.150;-110.320;2023-02-18T04:38:41;33.10;;;4.25;;
64500;SDS011;50874;24.150;-110.320;2023-02-18T04:41:07;39.78;;;5.82;;
64500;SDS011;50874;24.150;-110.320;2023-02-18T04:43:34;28.73;;;4.45;;
64500;SDS011;50874;24.150;-110.320;2023-02-18T04:46:00;31.00;;;4.57;;
64500;SDS011;50874;24.150;-110.320;2023-02-18T04:48:27;27.05;;;4.50;;
64500;SDS011;50874;24.150;-110.320;2023-02-18T04:50:53;41.60;;;5.30;;
64500;SDS011;50874;24.150;-110.320;2023-02-18T04:53:20;28.13;;;4.22;;
64500;SDS011;50874;24.150;-110.320;2023-02-18T04:55:50;25.58;;;4.63;;
64500;SDS011;50874;24.150;-110.320;2023-02-18T04:58:18;25.85;;;4.05;;
64500;SDS011;50874;24.150;-110.320;2023-02-18T05:00:45;29.73;;;3.95;;
64500;SDS011;50874;24.150;-110.320;2023-02-18T05:03:13;22.63;;;3.67;;
64500;SDS011;50874;24.150;-110.320;2023-02-18T05:05:40;29.20;;;5.03;;
64500;SDS011;50874;24.150;-110.320;2023-02-18T05:08:07;33.58;;;4.07;;
64500;SDS011;50874;24.150;-110.320;2023-02-18T05:10:33;30.45;;;4.07;;
64500;SDS011;50874;24.150;-110.320;2023-02-18T05:13:01;39.33;;;5.90;;
64500;SDS011;50874;24.150;-110.320;2023-02-18T05:15:28;37.63;;;6.75;;
64500;SDS011;50874;24.150;-110.320;2023-02-18T05:17:54;34.35;;;5.00;;
64500;SDS011;50874;24.150;-110.320;2023-02-18T05:20:21;57.45;;;6.55;;
64500;SDS011;50874;24.150;-110.320;2023-02-18T05:22:47;28.63;;;5.25;;
64500;SDS011;50874;24.150;-110.320;2023-02-18T05:25:14;38.97;;;6.00;;
64500;SDS011;50874;24.150;-110.320;2023-02-18T05:27:40;27.38;;;5.03;;
64500;SDS011;50874;24.150;-110.320;2023-02-18T05:30:07;56.65;;;5.45;;
64500;SDS011;50874;24.150;-110.320;2023-02-18T05:32:33;95.13;;;12.30;;
64500;SDS011;50874;24.150;-110.320;2023-02-18T05:35:00;79.72;;;11.25;;
64500;SDS011;50874;24.150;-110.320;2023-02-18T05:37:26;81.43;;;14.88;;
64500;SDS011;50874;24.150;-110.320;2023-02-18T05:39:53;74.82;;;9.85;;
64500;SDS011;50874;24.150;-110.320;2023-02-18T05:42:19;72.55;;;10.15;;
64500;SDS011;50874;24.150;-110.320;2023-02-18T05:44:47;77.85;;;10.65;;
64500;SDS011;50874;24.150;-110.320;2023-02-18T05:47:14;75.20;;;9.95;;
64500;SDS011;50874;24.150;-110.320;2023-02-18T05:49:40;58.13;;;7.80;;
64500;SDS011;50874;24.150;-110.320;2023-02-18T05:52:08;46.88;;;7.22;;
64500;SDS011;50874;24.150;-110.320;2023-02-18T05:54:35;54.75;;;7.20;;
64500;SDS011;50874;24.150;-110.320;2023-02-18T05:57:03;56.47;;;6.85;;
64500;SDS011;50874;24.150;-110.320;2023-02-18T05:59:29;51.65;;;7.25;;
64500;SDS011;50874;24.150;-110.320;2023-02-18T06:01:56;56.50;;;7.13;;
64500;SDS011;50874;24.150;-110.320;2023-02-18T06:04:23;48.38;;;6.22;;
64500;SDS011;50874;24.150;-110.320;2023-02-18T06:06:49;58.95;;;7.13;;
64500;SDS011;50874;24.150;-110.320;2023-02-18T06:09:16;46.72;;;6.80;;
64500;SDS011;50874;24.150;-110.320;2023-02-18T06:11:42;39.33;;;5.97;;
64500;SDS011;50874;24.150;-110.320;2023-02-18T06:14:09;45.00;;;5.90;;
64500;SDS011;50874;24.150;-110.320;2023-02-18T06:16:35;47.80;;;6.10;;
64500;SDS011;50874;24.150;-110.320;2023-02-18T06:19:02;41.72;;;5.72;;
64500;SDS011;50874;24.150;-110.320;2023-02-18T06:21:29;32.80;;;5.57;;
64500;SDS011;50874;24.150;-110.320;2023-02-18T06:23:55;37.00;;;5.72;;
64500;SDS011;50874;24.150;-110.320;2023-02-18T06:26:22;35.15;;;5.13;;
64500;SDS011;50874;24.150;-110.320;2023-02-18T06:28:48;39.55;;;5.38;;
64500;SDS011;50874;24.150;-110.320;2023-02-18T06:31:15;35.78;;;5.18;;
64500;SDS011;50874;24.150;-110.320;2023-02-18T06:33:41;73.53;;;7.38;;
64500;SDS011;50874;24.150;-110.320;2023-02-18T06:36:09;52.70;;;5.60;;
64500;SDS011;50874;24.150;-110.320;2023-02-18T06:38:37;32.38;;;5.10;;
64500;SDS011;50874;24.150;-110.320;2023-02-18T06:41:05;31.65;;;5.32;;
64500;SDS011;50874;24.150;-110.320;2023-02-18T06:43:32;29.52;;;3.88;;
64500;SDS011;50874;24.150;-110.320;2023-02-18T06:45:59;25.67;;;4.30;;
64500;SDS011;50874;24.150;-110.320;2023-02-18T06:48:26;34.13;;;4.53;;
64500;SDS011;50874;24.150;-110.320;2023-02-18T06:50:52;19.50;;;3.65;;
64500;SDS011;50874;24.150;-110.320;2023-02-18T06:53:19;31.98;;;4.35;;
64500;SDS011;50874;24.150;-110.320;2023-02-18T06:55:46;36.38;;;4.32;;
64500;SDS011;50874;24.150;-110.320;2023-02-18T06:58:12;20.55;;;3.58;;
64500;SDS011;50874;24.150;-110.320;2023-02-18T07:00:39;28.02;;;4.18;;
64500;SDS011;50874;24.150;-110.320;2023-02-18T07:03:06;26.02;;;4.78;;
64500;SDS011;50874;24.150;-110.320;2023-02-18T07:05:33;121.15;;;13.75;;
64500;SDS011;50874;24.150;-110.320;2023-02-18T07:08:00;48.58;;;5.78;;
64500;SDS011;50874;24.150;-110.320;2023-02-18T07:10:26;20.10;;;4.13;;
64500;SDS011;50874;24.150;-110.320;2023-02-18T07:12:53;26.90;;;3.67;;
64500;SDS011;50874;24.150;-110.320;2023-02-18T07:15:19;44.25;;;5.15;;
64500;SDS011;50874;24.150;-110.320;2023-02-18T07:17:51;22.60;;;3.55;;
64500;SDS011;50874;24.150;-110.320;2023-02-18T07:20:19;43.78;;;5.85;;
64500;SDS011;50874;24.150;-110.320;2023-02-18T07:22:46;28.25;;;3.13;;
64500;SDS011;50874;24.150;-110.320;2023-02-18T07:25:13;22.00;;;3.15;;
64500;SDS011;50874;24.150;-110.320;2023-02-18T07:27:40;37.10;;;3.92;;
64500;SDS011;50874;24.150;-110.320;2023-02-18T07:30:07;24.02;;;3.63;;
64500;SDS011;50874;24.150;-110.320;2023-02-18T07:32:34;31.88;;;5.32;;
64500;SDS011;50874;24.150;-110.320;2023-02-18T07:35:00;32.92;;;5.00;;
64500;SDS011;50874;24.150;-110.320;2023-02-18T07:37:27;24.52;;;4.20;;
64500;SDS011;50874;24.150;-110.320;2023-02-18T07:39:54;22.73;;;3.75;;
64500;SDS011;50874;24.150;-110.320;2023-02-18T07:42:20;18.02;;;3.35;;
64500;SDS011;50874;24.150;-110.320;2023-02-18T07:44:47;12.88;;;3.05;;
64500;SDS011;50874;24.150;-110.320;2023-02-18T07:47:14;19.15;;;2.95;;
64500;SDS011;50874;24.150;-110.320;2023-02-18T07:49:44;14.20;;;2.95;;
64500;SDS011;50874;24.150;-110.320;2023-02-18T07:52:11;24.05;;;3.38;;
64500;SDS011;50874;24.150;-110.320;2023-02-18T07:54:38;22.83;;;2.88;;
64500;SDS011;50874;24.150;-110.320;2023-02-18T07:57:05;24.73;;;4.75;;
64500;SDS011;50874;24.150;-110.320;2023-02-18T07:59:31;22.23;;;4.38;;
64500;SDS011;50874;24.150;-110.320;2023-02-18T08:01:58;22.00;;;3.70;;
64500;SDS011;50874;24.150;-110.320;2023-02-18T08:04:24;21.27;;;4.20;;
64500;SDS011;50874;24.150;-110.320;2023-02-18T08:06:51;21.77;;;4.03;;
64500;SDS011;50874;24.150;-110.320;2023-02-18T08:09:17;22.30;;;4.25;;
64500;SDS011;50874;24.150;-110.320;2023-02-18T08:11:44;15.52;;;3.33;;
64500;SDS011;50874;24.150;-110.320;2023-02-18T08:14:11;27.13;;;3.72;;
64500;SDS011;50874;24.150;-110.320;2023-02-18T08:16:37;26.25;;;4.72;;
64500;SDS011;50874;24.150;-110.320;2023-02-18T08:19:03;29.40;;;4.80;;
64500;SDS011;50874;24.150;-110.320;2023-02-18T08:21:30;24.73;;;3.72;;
64500;SDS011;50874;24.150;-110.320;2023-02-18T08:23:57;69.25;;;7.68;;
64500;SDS011;50874;24.150;-110.320;2023-02-18T08:26:24;18.00;;;2.97;;
64500;SDS011;50874;24.150;-110.320;2023-02-18T08:28:51;24.00;;;3.75;;
64500;SDS011;50874;24.150;-110.320;2023-02-18T08:33:48;26.60;;;3.58;;
64500;SDS011;50874;24.150;-110.320;2023-02-18T08:36:15;15.73;;;3.00;;
64500;SDS011;50874;24.150;-110.320;2023-02-18T08:38:42;20.55;;;3.03;;
64500;SDS011;50874;24.150;-110.320;2023-02-18T08:41:08;16.30;;;3.15;;
64500;SDS011;50874;24.150;-110.320;2023-02-18T08:43:35;19.67;;;3.92;;
64500;SDS011;50874;24.150;-110.320;2023-02-18T08:46:02;19.13;;;3.92;;
64500;SDS011;50874;24.150;-110.320;2023-02-18T08:48:28;24.75;;;3.88;;
64500;SDS011;50874;24.150;-110.320;2023-02-18T08:50:55;12.25;;;3.15;;
64500;SDS011;50874;24.150;-110.320;2023-02-18T08:53:22;18.58;;;3.42;;
64500;SDS011;50874;24.150;-110.320;2023-02-18T08:55:49;10.38;;;2.92;;
64500;SDS011;50874;24.150;-110.320;2023-02-18T08:58:15;19.20;;;2.95;;
64500;SDS011;50874;24.150;-110.320;2023-02-18T09:00:43;17.58;;;3.55;;
64500;SDS011;50874;24.150;-110.320;2023-02-18T09:03:12;21.85;;;3.08;;
64500;SDS011;50874;24.150;-110.320;2023-02-18T09:05:39;19.88;;;3.80;;
64500;SDS011;50874;24.150;-110.320;2023-02-18T09:08:06;20.15;;;2.67;;
64500;SDS011;50874;24.150;-110.320;2023-02-18T09:10:33;21.35;;;2.92;;
64500;SDS011;50874;24.150;-110.320;2023-02-18T09:12:59;23.65;;;3.42;;
64500;SDS011;50874;24.150;-110.320;2023-02-18T09:15:26;22.90;;;3.53;;
64500;SDS011;50874;24.150;-110.320;2023-02-18T09:17:52;30.75;;;4.05;;
64500;SDS011;50874;24.150;-110.320;2023-02-18T09:20:19;28.42;;;3.95;;
64500;SDS011;50874;24.150;-110.320;2023-02-18T09:22:45;23.58;;;3.60;;
64500;SDS011;50874;24.150;-110.320;2023-02-18T09:25:12;30.77;;;3.90;;
64500;SDS011;50874;24.150;-110.320;2023-02-18T09:27:38;33.70;;;4.43;;
64500;SDS011;50874;24.150;-110.320;2023-02-18T09:30:05;20.60;;;3.70;;
64500;SDS011;50874;24.150;-110.320;2023-02-18T09:32:32;37.38;;;4.40;;
64500;SDS011;50874;24.150;-110.320;2023-02-18T09:34:58;31.73;;;4.63;;
64500;SDS011;50874;24.150;-110.320;2023-02-18T09:37:25;27.25;;;4.20;;
64500;SDS011;50874;24.150;-110.320;2023-02-18T09:39:51;30.40;;;4.07;;
64500;SDS011;50874;24.150;-110.320;2023-02-18T09:42:17;32.65;;;4.05;;
64500;SDS011;50874;24.150;-110.320;2023-02-18T09:44:50;26.48;;;4.05;;
64500;SDS011;50874;24.150;-110.320;2023-02-18T09:47:30;19.60;;;3.92;;
64500;SDS011;50874;24.150;-110.320;2023-02-18T09:50:10;24.27;;;3.72;;
64500;SDS011;50874;24.150;-110.320;2023-02-18T09:52:43;19.25;;;3.15;;
64500;SDS011;50874;24.150;-110.320;2023-02-18T09:55:20;24.92;;;3.67;;
64500;SDS011;50874;24.150;-110.320;2023-02-18T09:57:53;27.15;;;3.28;;
64500;SDS011;50874;24.150;-110.320;2023-02-18T10:00:34;18.65;;;3.90;;
64500;SDS011;50874;24.150;-110.320;2023-02-18T10:03:05;18.63;;;2.78;;
64500;SDS011;50874;24.150;-110.320;2023-02-18T10:05:37;22.05;;;3.58;;
64500;SDS011;50874;24.150;-110.320;2023-02-18T10:08:44;26.75;;;3.90;;
64500;SDS011;50874;24.150;-110.320;2023-02-18T10:11:51;19.95;;;4.22;;
64500;SDS011;50874;24.150;-110.320;2023-02-18T10:13:59;22.92;;;3.55;;
64500;SDS011;50874;24.150;-110.320;2023-02-18T10:16:27;22.73;;;3.47;;
64500;SDS011;50874;24.150;-110.320;2023-02-18T10:18:58;20.08;;;3.83;;
64500;SDS011;50874;24.150;-110.320;2023-02-18T10:21:32;13.95;;;3.00;;
64500;SDS011;50874;24.150;-110.320;2023-02-18T10:24:05;22.42;;;3.60;;
64500;SDS011;50874;24.150;-110.320;2023-02-18T10:26:37;24.10;;;4.10;;
64500;SDS011;50874;24.150;-110.320;2023-02-18T10:29:08;12.25;;;3.63;;
64500;SDS011;50874;24.150;-110.320;2023-02-18T10:31:42;24.60;;;3.83;;
64500;SDS011;50874;24.150;-110.320;2023-02-18T10:37:10;17.42;;;3.25;;
64500;SDS011;50874;24.150;-110.320;2023-02-18T10:47:54;23.73;;;3.67;;
64500;SDS011;50874;24.150;-110.320;2023-02-18T10:53:02;21.33;;;3.78;;
64500;SDS011;50874;24.150;-110.320;2023-02-18T10:55:38;29.25;;;3.85;;
64500;SDS011;50874;24.150;-110.320;2023-02-18T11:00:57;27.38;;;3.88;;
64500;SDS011;50874;24.150;-110.320;2023-02-18T11:06:18;29.05;;;3.55;;
64500;SDS011;50874;24.150;-110.320;2023-02-18T11:08:54;23.73;;;4.15;;
64500;SDS011;50874;24.150;-110.320;2023-02-18T11:11:29;26.38;;;3.45;;
64500;SDS011;50874;24.150;-110.320;2023-02-18T11:14:01;22.40;;;3.20;;
64500;SDS011;50874;24.150;-110.320;2023-02-18T11:16:43;30.85;;;3.55;;
64500;SDS011;50874;24.150;-110.320;2023-02-18T11:22:19;24.20;;;2.95;;
64500;SDS011;50874;24.150;-110.320;2023-02-18T11:24:56;17.65;;;3.30;;
64500;SDS011;50874;24.150;-110.320;2023-02-18T11:27:30;20.70;;;4.00;;
64500;SDS011;50874;24.150;-110.320;2023-02-18T11:30:19;17.77;;;3.75;;
64500;SDS011;50874;24.150;-110.320;2023-02-18T11:35:49;18.63;;;2.50;;
64500;SDS011;50874;24.150;-110.320;2023-02-18T11:38:21;18.65;;;3.83;;
64500;SDS011;50874;24.150;-110.320;2023-02-18T11:41:00;17.65;;;4.15;;
64500;SDS011;50874;24.150;-110.320;2023-02-18T11:43:32;16.25;;;3.58;;
64500;SDS011;50874;24.150;-110.320;2023-02-18T11:46:09;47.17;;;4.32;;
64500;SDS011;50874;24.150;-110.320;2023-02-18T11:48:40;18.55;;;2.78;;
64500;SDS011;50874;24.150;-110.320;2023-02-18T11:51:17;23.63;;;2.88;;
64500;SDS011;50874;24.150;-110.320;2023-02-18T11:53:55;24.42;;;4.57;;
64500;SDS011;50874;24.150;-110.320;2023-02-18T11:56:25;37.53;;;3.78;;
64500;SDS011;50874;24.150;-110.320;2023-02-18T11:58:54;16.98;;;2.80;;
64500;SDS011;50874;24.150;-110.320;2023-02-18T12:12:01;18.05;;;2.58;;
64500;SDS011;50874;24.150;-110.320;2023-02-18T12:14:37;21.05;;;2.85;;
64500;SDS011;50874;24.150;-110.320;2023-02-18T12:31:09;20.23;;;3.58;;
64500;SDS011;50874;24.150;-110.320;2023-02-18T12:36:49;18.83;;;3.07;;
64500;SDS011;50874;24.150;-110.320;2023-02-18T12:45:12;18.88;;;2.97;;
64500;SDS011;50874;24.150;-110.320;2023-02-18T12:48:10;20.67;;;2.47;;
64500;SDS011;50874;24.150;-110.320;2023-02-18T12:51:01;16.17;;;2.53;;
64500;SDS011;50874;24.150;-110.320;2023-02-18T13:05:11;13.55;;;3.25;;
64500;SDS011;50874;24.150;-110.320;2023-02-18T13:13:28;22.02;;;3.45;;
64500;SDS011;50874;24.150;-110.320;2023-02-18T13:16:24;13.68;;;3.10;;
64500;SDS011;50874;24.150;-110.320;2023-02-18T13:21:41;27.10;;;3.42;;
64500;SDS011;50874;24.150;-110.320;2023-02-18T13:24:11;26.55;;;3.63;;
64500;SDS011;50874;24.150;-110.320;2023-02-18T13:26:45;31.88;;;4.57;;
64500;SDS011;50874;24.150;-110.320;2023-02-18T13:35:04;24.48;;;3.30;;
64500;SDS011;50874;24.150;-110.320;2023-02-18T13:40:36;31.48;;;3.40;;
64500;SDS011;50874;24.150;-110.320;2023-02-18T13:43:49;21.27;;;2.95;;
64500;SDS011;50874;24.150;-110.320;2023-02-18T13:48:43;20.13;;;3.72;;
64500;SDS011;50874;24.150;-110.320;2023-02-18T13:56:42;19.70;;;3.30;;
64500;SDS011;50874;24.150;-110.320;2023-02-18T13:59:24;25.10;;;4.05;;
64500;SDS011;50874;24.150;-110.320;2023-02-18T14:07:36;28.90;;;4.40;;
64500;SDS011;50874;24.150;-110.320;2023-02-18T14:18:19;34.03;;;5.25;;
64500;SDS011;50874;24.150;-110.320;2023-02-18T14:20:48;43.53;;;4.93;;
64500;SDS011;50874;24.150;-110.320;2023-02-18T14:31:44;22.88;;;4.15;;
64500;SDS011;50874;24.150;-110.320;2023-02-18T14:39:01;40.42;;;6.18;;
64500;SDS011;50874;24.150;-110.320;2023-02-18T14:47:31;30.85;;;3.13;;
64500;SDS011;50874;24.150;-110.320;2023-02-18T14:50:14;26.15;;;2.85;;
64500;SDS011;50874;24.150;-110.320;2023-02-18T14:55:22;20.75;;;3.13;;
64500;SDS011;50874;24.150;-110.320;2023-02-18T15:00:51;37.08;;;3.60;;
64500;SDS011;50874;24.150;-110.320;2023-02-18T15:03:18;26.02;;;3.40;;
64500;SDS011;50874;24.150;-110.320;2023-02-18T15:05:47;27.30;;;4.25;;
64500;SDS011;50874;24.150;-110.320;2023-02-18T15:08:18;25.27;;;3.70;;
64500;SDS011;50874;24.150;-110.320;2023-02-18T15:16:00;31.95;;;3.90;;
64500;SDS011;50874;24.150;-110.320;2023-02-18T15:21:06;30.15;;;3.90;;
64500;SDS011;50874;24.150;-110.320;2023-02-18T15:23:47;59.15;;;7.40;;
64500;SDS011;50874;24.150;-110.320;2023-02-18T15:26:15;65.32;;;7.38;;
64500;SDS011;50874;24.150;-110.320;2023-02-18T15:29:03;40.65;;;4.32;;
64500;SDS011;50874;24.150;-110.320;2023-02-18T15:31:33;27.65;;;2.75;;
64500;SDS011;50874;24.150;-110.320;2023-02-18T15:34:02;19.40;;;3.47;;
64500;SDS011;50874;24.150;-110.320;2023-02-18T15:36:42;29.92;;;3.83;;
64500;SDS011;50874;24.150;-110.320;2023-02-18T15:39:14;46.25;;;5.28;;
64500;SDS011;50874;24.150;-110.320;2023-02-18T15:41:40;34.88;;;5.32;;
64500;SDS011;50874;24.150;-110.320;2023-02-18T15:44:07;23.70;;;3.78;;
64500;SDS011;50874;24.150;-110.320;2023-02-18T15:46:33;18.80;;;3.22;;
64500;SDS011;50874;24.150;-110.320;2023-02-18T15:49:00;23.42;;;3.65;;
64500;SDS011;50874;24.150;-110.320;2023-02-18T15:51:31;33.58;;;3.88;;
64500;SDS011;50874;24.150;-110.320;2023-02-18T15:53:58;24.33;;;3.38;;
64500;SDS011;50874;24.150;-110.320;2023-02-18T15:56:40;24.55;;;2.80;;
64500;SDS011;50874;24.150;-110.320;2023-02-18T16:01:48;26.48;;;4.03;;
64500;SDS011;50874;24.150;-110.320;2023-02-18T16:04:16;25.25;;;3.60;;
64500;SDS011;50874;24.150;-110.320;2023-02-18T16:06:47;17.88;;;3.22;;
64500;SDS011;50874;24.150;-110.320;2023-02-18T16:09:19;27.73;;;4.28;;
64500;SDS011;50874;24.150;-110.320;2023-02-18T16:12:03;56.42;;;7.72;;
64500;SDS011;50874;24.150;-110.320;2023-02-18T16:17:23;25.27;;;4.68;;
64500;SDS011;50874;24.150;-110.320;2023-02-18T16:25:01;25.58;;;3.17;;
64500;SDS011;50874;24.150;-110.320;2023-02-18T16:27:46;27.20;;;3.47;;
64500;SDS011;50874;24.150;-110.320;2023-02-18T16:30:15;28.85;;;3.88;;
64500;SDS011;50874;24.150;-110.320;2023-02-18T16:32:53;25.55;;;4.30;;
64500;SDS011;50874;24.150;-110.320;2023-02-18T16:35:21;33.70;;;4.38;;
64500;SDS011;50874;24.150;-110.320;2023-02-18T16:37:49;35.20;;;4.53;;
64500;SDS011;50874;24.150;-110.320;2023-02-18T16:40:21;45.40;;;4.95;;
64500;SDS011;50874;24.150;-110.320;2023-02-18T16:42:55;28.63;;;4.15;;
64500;SDS011;50874;24.150;-110.320;2023-02-18T16:45:34;25.63;;;4.50;;
64500;SDS011;50874;24.150;-110.320;2023-02-18T16:48:02;35.50;;;5.00;;
64500;SDS011;50874;24.150;-110.320;2023-02-18T16:50:30;36.78;;;5.13;;
64500;SDS011;50874;24.150;-110.320;2023-02-18T16:52:58;33.92;;;4.82;;
64500;SDS011;50874;24.150;-110.320;2023-02-18T16:55:26;36.38;;;4.70;;
64500;SDS011;50874;24.150;-110.320;2023-02-18T16:57:53;30.02;;;3.30;;
64500;SDS011;50874;24.150;-110.320;2023-02-18T17:00:21;20.38;;;4.20;;
64500;SDS011;50874;24.150;-110.320;2023-02-18T17:02:49;31.75;;;4.07;;
64500;SDS011;50874;24.150;-110.320;2023-02-18T17:05:24;24.50;;;3.83;;
64500;SDS011;50874;24.150;-110.320;2023-02-18T17:07:52;23.00;;;3.83;;
64500;SDS011;50874;24.150;-110.320;2023-02-18T17:10:19;24.00;;;3.67;;
64500;SDS011;50874;24.150;-110.320;2023-02-18T17:12:46;15.52;;;3.50;;
64500;SDS011;50874;24.150;-110.320;2023-02-18T17:15:16;19.65;;;3.05;;
64500;SDS011;50874;24.150;-110.320;2023-02-18T17:18:06;16.10;;;2.73;;
64500;SDS011;50874;24.150;-110.320;2023-02-18T17:20:33;23.42;;;2.58;;
64500;SDS011;50874;24.150;-110.320;2023-02-18T17:22:59;15.50;;;3.05;;
64500;SDS011;50874;24.150;-110.320;2023-02-18T17:25:31;10.65;;;2.17;;
64500;SDS011;50874;24.150;-110.320;2023-02-18T17:28:01;20.85;;;2.92;;
64500;SDS011;50874;24.150;-110.320;2023-02-18T17:30:28;9.73;;;2.58;;
64500;SDS011;50874;24.150;-110.320;2023-02-18T17:32:57;18.65;;;2.95;;